Time;durP1;ratioP1;P1;durP2;ratioP2;P2;SDS_P1;SDS_P2;PMS_P1;PMS_P2;Temp;Humidity;BMP_temperature;BMP_pressure;BME280_temperature;BME280_humidity;BME280_pressure;Samples;Min_cycle;Max_cycle;Signal;HPM_P1;HPM_P2
2022/03/27 00:02:33;;;;;;;65.80;36.90;;;;;;;9.38;100.00;100923.25;5102343;28;20045;-86
2022/03/27 00:05:23;;;;;;;69.45;37.60;;;;;;;9.50;100.00;100948.38;5104190;28;20496;-85
2022/03/27 00:08:09;;;;;;;65.38;37.30;;;;;;;9.43;100.00;100936.78;5105395;28;20120;-84
2022/03/27 00:13:59;;;;;;;67.53;36.50;;;;;;;9.20;100.00;100937.06;5096034;28;20047;-84
2022/03/27 00:16:43;;;;;;;69.20;36.65;;;;;;;9.22;100.00;100950.03;5104704;28;20050;-86
2022/03/27 00:19:27;;;;;;;67.93;36.08;;;;;;;9.33;100.00;100942.03;5104875;28;20047;-85
2022/03/27 00:22:14;;;;;;;65.40;34.75;;;;;;;9.34;100.00;100948.09;5098314;28;20516;-85
2022/03/27 00:24:58;;;;;;;66.47;35.90;;;;;;;9.12;100.00;100950.03;5114912;28;20467;-86
2022/03/27 00:27:42;;;;;;;62.47;34.28;;;;;;;9.07;100.00;100950.44;5103255;28;20397;-84
2022/03/27 00:30:26;;;;;;;61.97;32.78;;;;;;;9.14;100.00;100953.34;5107863;28;20046;-84
2022/03/27 00:33:10;;;;;;;69.82;36.90;;;;;;;9.23;100.00;100967.41;5107892;28;20596;-84
2022/03/27 00:36:00;;;;;;;66.45;35.05;;;;;;;8.97;100.00;100932.09;5111419;28;20046;-85
2022/03/27 00:38:45;;;;;;;66.70;35.33;;;;;;;9.17;100.00;100952.25;5109749;28;20039;-86
2022/03/27 00:41:30;;;;;;;68.32;34.90;;;;;;;8.96;100.00;100932.25;5099906;28;20058;-85
2022/03/27 00:44:14;;;;;;;64.30;33.95;;;;;;;8.95;100.00;100931.41;5114764;28;20533;-85
2022/03/27 00:46:58;;;;;;;63.40;35.65;;;;;;;9.13;100.00;100970.03;5105858;28;20572;-87
2022/03/27 00:49:42;;;;;;;63.75;34.10;;;;;;;9.10;100.00;100973.75;5111488;28;20054;-87
2022/03/27 00:52:26;;;;;;;68.75;36.83;;;;;;;8.88;100.00;100927.69;5097763;28;20051;-86
2022/03/27 00:55:10;;;;;;;71.60;37.55;;;;;;;8.90;100.00;100936.25;5106481;28;20450;-86
2022/03/27 00:57:55;;;;;;;73.95;39.65;;;;;;;8.82;100.00;100928.22;5104505;28;20106;-86
2022/03/27 01:00:45;;;;;;;74.32;38.22;;;;;;;9.06;100.00;100955.84;5096684;28;20413;-86
2022/03/27 01:03:31;;;;;;;74.50;40.60;;;;;;;8.92;100.00;100930.84;5117334;28;20051;-86
2022/03/27 01:06:31;;;;;;;77.05;40.60;;;;;;;9.05;100.00;100948.94;5106831;28;20381;-86
2022/03/27 01:09:36;;;;;;;72.13;39.45;;;;;;;8.91;100.00;100927.44;5099508;28;20093;-88
2022/03/27 01:12:27;;;;;;;77.05;41.25;;;;;;;8.96;100.00;100935.69;5091043;28;20042;-88
2022/03/27 01:15:54;;;;;;;94.18;47.03;;;;;;;9.06;100.00;100940.94;5106345;28;20161;-86
2022/03/27 01:18:39;;;;;;;87.00;44.22;;;;;;;9.03;100.00;100924.66;5104014;28;20054;-88
2022/03/27 01:21:23;;;;;;;96.40;43.38;;;;;;;9.02;100.00;100928.25;5103773;28;20555;-87
2022/03/27 01:24:09;;;;;;;88.97;44.30;;;;;;;9.06;100.00;100934.88;5107189;28;20046;-87
2022/03/27 01:26:53;;;;;;;81.93;44.55;;;;;;;9.12;100.00;100929.09;5094518;28;20074;-87
2022/03/27 01:29:38;;;;;;;86.70;42.38;;;;;;;9.11;100.00;100927.44;5106703;28;20413;-87
2022/03/27 01:32:22;;;;;;;75.53;41.20;;;;;;;8.99;100.00;100908.41;5105056;28;20047;-86
2022/03/27 01:35:07;;;;;;;83.28;42.72;;;;;;;9.05;100.00;100918.31;5105893;28;20232;-87
2022/03/27 01:37:56;;;;;;;87.85;43.38;;;;;;;9.06;100.00;100903.44;5120532;28;20469;-85
2022/03/27 01:40:40;;;;;;;88.15;42.22;;;;;;;9.09;100.00;100924.13;5121529;28;20083;-87
2022/03/27 01:43:24;;;;;;;77.43;41.03;;;;;;;8.97;100.00;100924.25;5132964;28;20093;-87
2022/03/27 01:46:09;;;;;;;90.43;44.13;;;;;;;9.04;100.00;100931.56;5123207;28;20074;-86
2022/03/27 01:48:53;;;;;;;80.88;40.97;;;;;;;9.11;100.00;100936.09;5117897;28;20466;-87
2022/03/27 01:51:39;;;;;;;80.35;40.05;;;;;;;9.09;100.00;100937.22;5106133;28;20130;-88
2022/03/27 01:54:23;;;;;;;80.25;40.80;;;;;;;8.93;100.00;100909.78;5105614;28;20054;-88
2022/03/27 01:57:07;;;;;;;75.90;40.63;;;;;;;8.91;100.00;100906.47;5120046;27;20054;-86
2022/03/27 01:59:52;;;;;;;73.80;39.03;;;;;;;8.93;100.00;100911.56;5124820;27;20077;-88
2022/03/27 02:02:36;;;;;;;74.15;36.80;;;;;;;8.84;100.00;100903.56;5117398;28;20033;-87
2022/03/27 02:05:20;;;;;;;82.10;39.55;;;;;;;8.79;100.00;100903.16;5113362;27;20058;-86
2022/03/27 02:08:05;;;;;;;81.47;40.20;;;;;;;8.85;100.00;100917.50;5115685;27;20042;-87
2022/03/27 02:10:50;;;;;;;78.10;39.97;;;;;;;8.80;100.00;100911.81;5113088;28;20046;-87
2022/03/27 02:13:19;;;;;;;74.65;39.67;;;;;;;8.88;100.00;100932.94;5104409;28;20495;-85
2022/03/27 02:15:46;;;;;;;84.20;41.58;;;;;;;8.75;100.00;100906.19;5082004;28;20039;-86
2022/03/27 02:18:14;;;;;;;87.32;42.15;;;;;;;8.76;100.00;100905.22;5082452;28;20039;-86
2022/03/27 02:20:40;;;;;;;91.25;44.47;;;;;;;8.80;100.00;100923.16;5097846;28;20032;-87
2022/03/27 02:23:07;;;;;;;85.28;43.80;;;;;;;8.74;100.00;100904.53;5106340;28;20028;-88
2022/03/27 02:25:33;;;;;;;90.35;44.28;;;;;;;8.63;100.00;100887.16;5119830;28;20027;-88
2022/03/27 02:27:59;;;;;;;85.90;43.95;;;;;;;8.72;100.00;100888.94;5093363;28;20105;-87
2022/03/27 02:30:24;;;;;;;81.65;41.92;;;;;;;8.80;100.00;100910.06;5088203;28;20028;-86
2022/03/27 02:32:50;;;;;;;85.85;42.67;;;;;;;8.75;100.00;100890.47;5093178;28;20056;-87
2022/03/27 02:35:16;;;;;;;93.00;44.38;;;;;;;8.81;100.00;100890.75;5105262;28;20036;-84
2022/03/27 02:37:41;;;;;;;89.45;43.13;;;;;;;8.87;100.00;100884.16;5100468;28;20035;-85
2022/03/27 02:40:08;;;;;;;93.85;45.85;;;;;;;8.97;100.00;100887.59;5086690;28;20046;-84
2022/03/27 02:42:33;;;;;;;86.63;44.78;;;;;;;9.02;100.00;100886.34;5106916;28;20039;-87
2022/03/27 02:45:01;;;;;;;85.65;41.88;;;;;;;9.05;100.00;100907.84;5090827;28;20500;-86
2022/03/27 02:47:26;;;;;;;83.03;41.08;;;;;;;9.02;100.00;100883.72;5089581;28;20028;-87
2022/03/27 02:49:53;;;;;;;82.30;41.70;;;;;;;8.96;100.00;100877.25;5095214;28;20860;-89
2022/03/27 02:52:18;;;;;;;82.65;41.75;;;;;;;9.13;100.00;100904.53;5087183;28;20059;-86
2022/03/27 02:54:44;;;;;;;86.22;42.78;;;;;;;9.11;100.00;100912.53;5082524;28;20039;-87
2022/03/27 02:57:10;;;;;;;85.35;40.88;;;;;;;9.06;100.00;100913.94;5109801;28;20031;-86
2022/03/27 02:59:36;;;;;;;83.65;42.22;;;;;;;8.75;100.00;100878.22;5106981;28;20036;-87
2022/03/27 03:02:04;;;;;;;80.38;40.53;;;;;;;8.93;100.00;100899.31;5089425;28;20067;-88
2022/03/27 03:04:34;;;;;;;82.47;41.78;;;;;;;8.81;100.00;100889.91;5097660;28;20023;-87
2022/03/27 03:07:01;;;;;;;83.03;39.90;;;;;;;8.65;100.00;100865.13;5101479;28;20040;-88
2022/03/27 03:09:26;;;;;;;76.80;39.67;;;;;;;8.74;100.00;100888.81;5079202;28;20028;-85
2022/03/27 03:11:52;;;;;;;77.13;39.33;;;;;;;8.58;100.00;100864.00;5110462;28;20031;-84
2022/03/27 03:14:18;;;;;;;82.57;39.65;;;;;;;8.56;100.00;100855.47;5115864;28;20031;-87
2022/03/27 03:16:46;;;;;;;91.00;40.42;;;;;;;8.76;100.00;100887.72;5083241;28;20023;-86
2022/03/27 03:19:13;;;;;;;78.05;38.22;;;;;;;8.67;100.00;100884.13;5091018;28;20042;-85
2022/03/27 03:21:41;;;;;;;75.60;37.80;;;;;;;8.67;100.00;100868.44;5105410;28;20055;-86
2022/03/27 03:24:07;;;;;;;75.70;36.00;;;;;;;8.75;100.00;100904.41;5092225;28;20047;-85
2022/03/27 03:26:34;;;;;;;74.07;37.20;;;;;;;8.50;100.00;100874.34;5092168;28;20047;-86
2022/03/27 03:28:59;;;;;;;77.43;34.40;;;;;;;8.61;100.00;100879.44;5092246;28;20027;-86
2022/03/27 03:31:25;;;;;;;72.45;34.75;;;;;;;8.44;100.00;100852.91;5101786;28;20020;-86
2022/03/27 03:33:51;;;;;;;72.35;35.55;;;;;;;8.46;100.00;100862.44;5104983;28;20367;-86
2022/03/27 03:36:17;;;;;;;68.80;35.15;;;;;;;8.62;100.00;100873.22;5088611;28;20076;-86
2022/03/27 03:38:42;;;;;;;67.13;33.15;;;;;;;8.54;100.00;100860.81;5106341;28;20435;-85
2022/03/27 03:41:08;;;;;;;72.47;34.53;;;;;;;8.69;100.00;100881.38;5106775;28;20028;-87
2022/03/27 03:43:36;;;;;;;70.93;34.25;;;;;;;8.60;100.00;100863.88;5084110;28;20027;-87
2022/03/27 03:46:03;;;;;;;62.50;32.90;;;;;;;8.78;100.00;100890.19;5105994;28;20439;-87
2022/03/27 03:48:29;;;;;;;66.88;32.00;;;;;;;8.80;100.00;100876.00;5104634;28;20027;-87
2022/03/27 03:50:55;;;;;;;63.92;32.08;;;;;;;8.94;100.00;100900.13;5091991;28;20062;-89
2022/03/27 03:53:21;;;;;;;63.72;31.08;;;;;;;8.78;100.00;100877.94;5107221;28;20122;-88
2022/03/27 03:55:46;;;;;;;64.88;31.05;;;;;;;8.75;100.00;100862.50;5102485;28;20032;-86
2022/03/27 03:58:14;;;;;;;57.30;29.63;;;;;;;8.68;100.00;100864.00;5087425;28;20511;-87
2022/03/27 04:00:41;;;;;;;57.85;28.48;;;;;;;8.86;100.00;100895.59;5102631;28;20031;-86
2022/03/27 04:03:07;;;;;;;56.25;27.40;;;;;;;8.85;100.00;100896.56;5102275;28;20035;-87
2022/03/27 04:05:34;;;;;;;57.05;29.15;;;;;;;8.85;100.00;100886.91;5106942;28;20024;-86
2022/03/27 04:08:00;;;;;;;50.75;27.88;;;;;;;8.86;100.00;100888.53;5101663;28;20504;-85
2022/03/27 04:10:26;;;;;;;56.85;28.58;;;;;;;8.65;100.00;100843.34;5077793;28;20028;-86
2022/03/27 04:12:58;;;;;;;42.42;20.20;;;;;;;8.75;100.00;100856.44;5095190;28;20028;-85
2022/03/27 04:15:28;;;;;;;53.75;27.10;;;;;;;8.70;100.00;100852.44;5082764;28;20019;-87
2022/03/27 04:17:54;;;;;;;56.50;27.67;;;;;;;8.88;100.00;100869.25;5098087;28;20084;-87
2022/03/27 04:20:21;;;;;;;54.38;27.98;;;;;;;8.91;100.00;100854.09;5096412;28;20119;-86
2022/03/27 04:22:46;;;;;;;53.88;28.33;;;;;;;8.92;100.00;100857.53;5104896;28;20027;-87
2022/03/27 04:25:13;;;;;;;53.60;26.65;;;;;;;9.07;100.00;100874.47;5101030;28;20481;-87
2022/03/27 04:27:39;;;;;;;63.78;28.58;;;;;;;9.12;100.00;100876.69;5087317;28;20055;-85
2022/03/27 04:30:10;;;;;;;63.20;29.85;;;;;;;9.12;100.00;100876.69;5109256;28;20030;-86
2022/03/27 04:32:36;;;;;;;53.53;26.90;;;;;;;9.07;100.00;100873.66;5102356;28;20070;-88
2022/03/27 04:35:03;;;;;;;58.08;27.08;;;;;;;8.93;100.00;100867.88;5077736;28;20040;-87
2022/03/27 04:37:29;;;;;;;49.80;26.38;;;;;;;8.81;100.00;100858.50;5083168;28;20489;-85
2022/03/27 04:40:01;;;;;;;57.00;26.92;;;;;;;8.83;100.00;100867.88;5089315;28;20028;-86
2022/03/27 04:42:27;;;;;;;53.63;28.95;;;;;;;8.60;100.00;100850.78;5101895;28;20131;-89
2022/03/27 04:44:53;;;;;;;63.58;29.98;;;;;;;8.66;100.00;100861.53;5102407;28;20037;-86
2022/03/27 04:47:19;;;;;;;61.08;30.58;;;;;;;8.50;100.00;100827.22;5105710;28;20438;-85
2022/03/27 04:49:44;;;;;;;61.22;29.55;;;;;;;8.54;100.00;100836.44;5095278;28;20058;-86
2022/03/27 04:52:11;;;;;;;59.63;29.35;;;;;;;8.56;100.00;100839.75;5102311;28;20032;-87
2022/03/27 04:54:38;;;;;;;66.38;30.88;;;;;;;8.57;100.00;100851.88;5107343;28;20054;-87
2022/03/27 04:57:05;;;;;;;59.33;31.33;;;;;;;8.66;100.00;100858.09;5103064;28;20024;-88
2022/03/27 04:59:30;;;;;;;71.35;32.70;;;;;;;8.50;100.00;100851.59;5094260;28;20994;-88
2022/03/27 05:01:58;;;;;;;65.60;31.80;;;;;;;8.53;100.00;100860.97;5107705;28;20064;-88
2022/03/27 05:04:23;;;;;;;63.78;31.70;;;;;;;8.47;100.00;100845.78;5099143;28;20035;-87
2022/03/27 05:06:49;;;;;;;68.90;31.08;;;;;;;8.56;100.00;100858.06;5107250;28;20032;-86
2022/03/27 05:09:15;;;;;;;62.42;29.55;;;;;;;8.39;100.00;100830.75;5107078;28;20040;-86
2022/03/27 05:11:41;;;;;;;59.63;29.27;;;;;;;8.12;100.00;100800.81;5102774;28;20019;-86
2022/03/27 05:14:08;;;;;;;65.80;29.83;;;;;;;8.40;100.00;100851.53;5107000;28;20472;-85
2022/03/27 05:16:33;;;;;;;66.47;33.08;;;;;;;8.43;100.00;100861.75;5107876;28;20119;-85
2022/03/27 05:18:59;;;;;;;69.18;32.53;;;;;;;8.40;100.00;100851.53;5085181;28;20115;-86
2022/03/27 05:21:25;;;;;;;74.13;33.38;;;;;;;8.42;100.00;100860.09;5099064;28;20080;-86
2022/03/27 05:23:51;;;;;;;73.20;35.50;;;;;;;8.43;100.00;100850.47;5085248;28;20031;-86
2022/03/27 05:26:17;;;;;;;73.35;35.30;;;;;;;8.47;100.00;100864.09;5102317;28;20373;-86
2022/03/27 05:28:43;;;;;;;76.63;35.35;;;;;;;8.47;100.00;100845.78;5092992;28;20036;-85
2022/03/27 05:31:09;;;;;;;72.38;33.45;;;;;;;8.52;100.00;100839.19;5110647;28;20028;-88
2022/03/27 05:33:36;;;;;;;75.68;35.28;;;;;;;8.37;100.00;100830.88;5107973;28;20036;-85
2022/03/27 05:36:03;;;;;;;68.15;32.22;;;;;;;8.50;100.00;100838.50;5101707;28;20393;-88
2022/03/27 05:38:29;;;;;;;79.25;34.42;;;;;;;8.47;100.00;100846.59;5086595;28;20034;-87
2022/03/27 05:40:55;;;;;;;78.00;34.97;;;;;;;8.37;100.00;100830.88;5097867;28;20028;-89
2022/03/27 05:43:20;;;;;;;72.35;35.05;;;;;;;8.51;100.00;100852.44;5091063;28;20118;-86
2022/03/27 05:45:46;;;;;;;75.03;35.92;;;;;;;8.52;100.00;100857.50;5111960;28;20023;-86
2022/03/27 05:48:12;;;;;;;81.72;38.53;;;;;;;8.22;100.00;100827.00;5105002;28;20027;-87
2022/03/27 05:50:38;;;;;;;82.53;40.22;;;;;;;8.28;100.00;100822.06;5091941;28;20112;-86
2022/03/27 05:53:04;;;;;;;88.95;40.30;;;;;;;8.34;100.00;100819.84;5084340;28;20028;-88
2022/03/27 05:55:29;;;;;;;88.70;39.58;;;;;;;8.40;100.00;100835.84;5087387;28;20050;-89
2022/03/27 05:57:55;;;;;;;88.28;40.17;;;;;;;8.21;100.00;100807.03;5101097;28;20036;-89
2022/03/27 06:00:21;;;;;;;92.47;40.75;;;;;;;8.54;100.00;100860.81;5091011;28;20060;-88
2022/03/27 06:02:51;;;;;;;87.00;40.85;;;;;;;8.55;100.00;100866.91;5098288;28;20127;-88
2022/03/27 06:05:22;;;;;;;81.93;36.45;;;;;;;8.55;100.00;100865.13;5103341;28;20030;-87
2022/03/27 06:07:53;;;;;;;86.45;37.25;;;;;;;8.57;100.00;100875.44;5098367;28;20036;-88
2022/03/27 06:10:24;;;;;;;96.32;42.08;;;;;;;8.51;100.00;100855.03;5086813;28;20059;-88
2022/03/27 06:12:51;;;;;;;88.55;39.97;;;;;;;8.35;100.00;100827.59;5090596;28;20020;-88
2022/03/27 06:15:17;;;;;;;95.90;43.95;;;;;;;8.34;100.00;100832.94;5087155;28;20035;-88
2022/03/27 06:17:46;;;;;;;92.95;43.38;;;;;;;8.63;100.00;100872.25;5117165;28;20535;-86
2022/03/27 06:20:14;;;;;;;98.18;44.17;;;;;;;8.43;100.00;100842.59;5094069;28;20027;-84
2022/03/27 06:22:41;;;;;;;100.10;44.97;;;;;;;8.58;100.00;100853.53;5090797;28;20028;-84
2022/03/27 06:25:11;;;;;;;82.53;40.67;;;;;;;8.71;100.00;100880.28;5088051;28;20039;-85
2022/03/27 06:27:37;;;;;;;94.65;41.00;;;;;;;8.79;100.00;100881.38;5102150;28;20072;-86
2022/03/27 06:30:06;;;;;;;94.55;42.13;;;;;;;8.66;100.00;100861.53;5105899;28;20485;-84
2022/03/27 06:32:32;;;;;;;92.80;40.20;;;;;;;8.50;100.00;100851.59;5105021;28;20505;-86
2022/03/27 06:35:01;;;;;;;93.72;42.22;;;;;;;8.60;100.00;100869.09;5102975;28;20032;-86
2022/03/27 06:37:28;;;;;;;89.68;41.70;;;;;;;8.59;100.00;100839.47;5104357;28;20179;-87
2022/03/27 06:39:54;;;;;;;95.15;40.13;;;;;;;8.81;100.00;100855.88;5103250;28;20036;-84
2022/03/27 06:42:21;;;;;;;91.28;42.17;;;;;;;8.95;100.00;100879.03;5092918;28;20031;-84
2022/03/27 06:44:47;;;;;;;95.07;42.42;;;;;;;8.79;100.00;100848.19;5102280;28;20007;-83
2022/03/27 06:47:14;;;;;;;92.20;41.78;;;;;;;8.53;100.00;100824.31;5107768;28;20028;-84
2022/03/27 06:49:40;;;;;;;84.85;41.03;;;;;;;8.90;100.00;100856.84;5099620;28;20048;-86
2022/03/27 06:52:07;;;;;;;89.35;39.75;;;;;;;8.91;100.00;100842.78;5106328;28;20189;-85
2022/03/27 06:54:34;;;;;;;88.05;39.28;;;;;;;9.22;100.00;100867.00;5088497;28;20080;-86
2022/03/27 06:56:59;;;;;;;95.28;39.00;;;;;;;8.94;100.00;100817.16;5101309;28;20032;-85
2022/03/27 06:59:25;;;;;;;87.13;41.28;;;;;;;9.00;100.00;100834.09;5103951;28;20031;-84
2022/03/27 07:04:35;;;;;;;82.32;37.63;;;;;;;9.03;100.00;100830.34;5104938;28;20027;-85
2022/03/27 07:07:01;;;;;;;84.78;38.40;;;;;;;9.32;100.00;100871.44;5097926;28;20097;-83
2022/03/27 07:09:27;;;;;;;89.03;40.30;;;;;;;9.41;100.00;100870.56;5104381;28;20078;-84
2022/03/27 07:11:53;;;;;;;83.78;39.58;;;;;;;9.10;100.00;100806.09;5102783;28;20039;-83
2022/03/27 07:14:18;;;;;;;80.88;38.67;;;;;;;9.22;100.00;100848.66;5098076;28;20024;-83
2022/03/27 07:16:44;;;;;;;73.22;36.58;;;;;;;9.15;100.00;100837.09;5107334;28;20032;-84
2022/03/27 07:19:10;;;;;;;78.93;35.85;;;;;;;9.38;100.00;100845.47;5105407;28;20043;-83
2022/03/27 07:21:37;;;;;;;74.40;35.60;;;;;;;9.22;100.00;100825.09;5090656;28;20035;-83
2022/03/27 07:24:03;;;;;;;72.93;34.75;;;;;;;9.19;100.00;100832.41;5105839;28;20413;-83
2022/03/27 07:26:29;;;;;;;68.63;33.65;;;;;;;9.43;100.00;100819.66;5103069;28;20024;-84
2022/03/27 07:28:54;;;;;;;72.20;34.78;;;;;;;9.42;100.00;100827.66;5106206;28;20068;-82
2022/03/27 07:31:20;;;;;;;68.55;33.40;;;;;;;9.73;100.00;100856.25;5110825;28;20061;-87
2022/03/27 07:33:45;;;;;;;67.50;33.20;;;;;;;9.82;100.00;100831.78;5083889;28;20036;-83
2022/03/27 07:36:11;;;;;;;66.53;32.42;;;;;;;9.84;100.00;100824.63;5097789;28;20051;-84
2022/03/27 07:38:37;;;;;;;63.47;32.58;;;;;;;10.03;100.00;100833.38;5097413;28;20396;-84
2022/03/27 07:41:05;;;;;;;65.13;31.67;;;;;;;10.05;100.00;100856.81;5093185;28;20031;-83
2022/03/27 07:43:32;;;;;;;60.38;31.17;;;;;;;9.97;100.00;100826.06;5102657;28;20028;-83
2022/03/27 07:45:59;;;;;;;62.10;31.75;;;;;;;10.27;100.00;100864.28;5101233;28;20431;-84
2022/03/27 07:48:26;;;;;;;57.58;31.45;;;;;;;10.40;100.00;100866.56;5103710;28;20023;-84
2022/03/27 07:50:54;;;;;;;60.30;29.52;;;;;;;10.56;100.00;100838.84;5102307;28;20077;-82
2022/03/27 07:53:21;;;;;;;59.33;29.77;;;;;;;10.76;100.00;100883.34;5090540;28;20355;-82
2022/03/27 07:55:46;;;;;;;53.90;28.80;;;;;;;10.85;100.00;100840.41;5103304;28;20035;-83
2022/03/27 07:58:12;;;;;;;59.83;29.95;;;;;;;10.99;100.00;100839.84;5088585;28;20038;-84
2022/03/27 08:00:38;;;;;;;50.78;29.13;;;;;;;11.17;100.00;100873.16;5092849;28;20040;-86
2022/03/27 08:03:04;;;;;;;54.65;27.38;;;;;;;11.23;100.00;100855.97;5105643;28;20115;-84
2022/03/27 08:05:36;;;;;;;45.92;26.45;;;;;;;11.41;100.00;100855.94;5093831;28;20033;-85
2022/03/27 08:08:07;;;;;;;46.35;26.90;;;;;;;11.46;100.00;100856.28;5116065;28;20056;-85
2022/03/27 08:10:36;;;;;;;47.05;25.60;;;;;;;11.72;100.00;100881.75;5117352;28;20035;-85
2022/03/27 08:13:03;;;;;;;46.70;25.85;;;;;;;11.21;100.00;100850.03;5107853;28;20048;-86
2022/03/27 08:15:29;;;;;;;45.40;25.52;;;;;;;11.82;100.00;100871.94;5109733;28;20061;-83
2022/03/27 08:17:57;;;;;;;44.17;25.15;;;;;;;12.04;100.00;100848.69;5096642;28;20032;-85
2022/03/27 08:20:26;;;;;;;42.75;24.23;;;;;;;12.12;100.00;100824.22;5126746;28;20027;-84
2022/03/27 08:22:52;;;;;;;45.33;25.02;;;;;;;12.60;100.00;100827.09;5077896;28;20378;-84
2022/03/27 08:28:04;;;;;;;43.25;22.58;;;;;;;11.95;100.00;100823.28;5123615;28;20122;-85
2022/03/27 08:30:29;;;;;;;39.35;23.45;;;;;;;12.24;100.00;100869.50;5095460;28;20165;-86
2022/03/27 08:32:58;;;;;;;47.20;24.67;;;;;;;11.69;100.00;100843.44;5092361;28;20047;-85
2022/03/27 08:35:23;;;;;;;43.30;25.60;;;;;;;11.84;100.00;100843.66;5100126;28;20481;-84
2022/03/27 08:37:49;;;;;;;39.30;22.70;;;;;;;11.69;100.00;100835.53;5111365;28;20040;-85
2022/03/27 08:40:17;;;;;;;47.08;25.55;;;;;;;12.06;100.00;100809.03;5100225;28;20039;-87
2022/03/27 08:43:16;;;;;;;45.22;24.83;;;;;;;12.31;100.00;100828.34;5105172;28;20117;-84
2022/03/27 08:45:43;;;;;;;39.85;23.85;;;;;;;12.16;100.00;100846.59;5090671;28;20488;-86
2022/03/27 08:48:11;;;;;;;40.45;23.88;;;;;;;12.03;100.00;100830.41;5102760;28;20032;-86
2022/03/27 08:51:02;;;;;;;47.90;26.60;;;;;;;12.73;100.00;100846.84;5092827;28;20485;-84
2022/03/27 08:54:02;;;;;;;40.70;23.05;;;;;;;12.82;100.00;100845.88;5099476;28;20027;-84
2022/03/27 08:56:30;;;;;;;41.28;24.38;;;;;;;12.40;100.00;100821.28;5084519;28;20043;-84
2022/03/27 08:58:58;;;;;;;37.13;22.90;;;;;;;12.34;100.00;100820.13;5105568;28;20121;-84
2022/03/27 09:01:24;;;;;;;39.80;23.02;;;;;;;12.38;100.00;100834.63;5093177;28;20036;-84
2022/03/27 09:03:50;;;;;;;43.05;25.83;;;;;;;12.54;100.00;100817.19;5112399;28;20122;-85
2022/03/27 09:06:15;;;;;;;43.22;25.00;;;;;;;12.82;100.00;100819.53;5094938;28;20085;-85
2022/03/27 09:08:41;;;;;;;40.97;25.63;;;;;;;13.39;100.00;100854.72;5112569;28;20027;-85
2022/03/27 09:11:15;;;;;;;46.20;26.50;;;;;;;13.27;100.00;100823.41;5095621;28;20027;-85
2022/03/27 09:13:46;;;;;;;43.58;26.50;;;;;;;13.93;100.00;100832.97;5095753;28;20077;-84
2022/03/27 09:16:13;;;;;;;39.08;24.10;;;;;;;14.18;100.00;100866.34;5103856;28;20379;-88
2022/03/27 09:19:01;;;;;;;41.25;25.35;;;;;;;14.21;100.00;100844.88;5092650;28;20434;-84
2022/03/27 09:21:28;;;;;;;45.75;28.23;;;;;;;14.22;100.00;100822.75;5107341;27;20548;-84
2022/03/27 09:23:59;;;;;;;47.70;28.60;;;;;;;14.53;100.00;100861.50;5110873;28;20438;-83
2022/03/27 09:26:26;;;;;;;42.42;25.63;;;;;;;14.37;100.00;100850.06;5094059;28;20080;-86
2022/03/27 09:28:57;;;;;;;45.33;27.02;;;;;;;14.41;100.00;100855.78;5102885;28;20509;-87
2022/03/27 09:31:24;;;;;;;40.47;24.88;;;;;;;14.69;100.00;100852.66;5105280;28;20024;-86
2022/03/27 09:34:00;;;;;;;42.30;25.00;;;;;;;14.64;100.00;100802.94;5089491;28;20541;-85
2022/03/27 09:36:34;;;;;;;46.17;26.83;;;;;;;14.81;100.00;100856.53;5100420;28;20062;-85
2022/03/27 09:39:13;;;;;;;44.35;27.83;;;;;;;14.80;100.00;100851.44;5111573;28;20028;-86
2022/03/27 09:41:51;;;;;;;35.25;22.05;;;;;;;14.80;100.00;100852.25;5100884;28;20073;-85
2022/03/27 09:44:22;;;;;;;25.48;15.93;;;;;;;14.95;100.00;100844.38;5106390;27;20773;-87
2022/03/27 09:46:51;;;;;;;27.80;16.63;;;;;;;15.04;100.00;100842.47;5092406;28;20089;-86
2022/03/27 09:49:21;;;;;;;26.88;16.58;;;;;;;14.40;100.00;100811.88;5093471;28;20032;-85
2022/03/27 09:52:05;;;;;;;28.00;17.55;;;;;;;14.88;100.00;100826.75;5111669;28;20100;-85
2022/03/27 09:54:58;;;;;;;29.90;17.42;;;;;;;14.97;100.00;100808.00;5088016;28;20038;-84
2022/03/27 09:57:26;;;;;;;28.88;17.52;;;;;;;15.11;100.00;100834.63;5108375;28;20132;-84
2022/03/27 09:59:53;;;;;;;28.30;17.25;;;;;;;14.79;100.00;100786.34;5104750;28;20067;-83
2022/03/27 10:02:24;;;;;;;26.75;16.23;;;;;;;15.25;100.00;100830.38;5113282;28;20036;-84
2022/03/27 10:05:02;;;;;;;30.98;15.48;;;;;;;15.08;100.00;100819.13;5127951;27;20067;-83
2022/03/27 10:07:40;;;;;;;26.85;15.38;;;;;;;15.75;100.00;100788.28;5115981;27;20031;-85
2022/03/27 10:10:11;;;;;;;24.27;14.05;;;;;;;15.55;100.00;100790.66;5087830;28;20039;-84
2022/03/27 10:12:39;;;;;;;20.40;13.02;;;;;;;15.48;100.00;100798.50;5106919;28;20168;-83
2022/03/27 10:15:12;;;;;;;17.08;10.55;;;;;;;14.36;100.00;100803.50;5091891;28;20477;-82
2022/03/27 10:17:41;;;;;;;19.57;11.53;;;;;;;14.55;100.00;100783.69;5098900;28;20059;-82
2022/03/27 10:20:09;;;;;;;19.15;11.20;;;;;;;14.39;100.00;100811.06;5110764;28;20108;-83
2022/03/27 10:22:45;;;;;;;19.30;11.05;;;;;;;14.28;100.00;100761.28;5108570;28;20031;-80
2022/03/27 10:25:13;;;;;;;15.32;9.45;;;;;;;14.58;100.00;100769.31;5105171;28;20016;-83
2022/03/27 10:27:40;;;;;;;18.38;11.02;;;;;;;14.60;100.00;100788.47;5105918;28;20032;-84
2022/03/27 10:30:08;;;;;;;23.90;13.55;;;;;;;14.48;100.00;100758.16;5091339;28;20027;-84
2022/03/27 10:32:35;;;;;;;21.27;12.10;;;;;;;14.80;100.00;100764.19;5102545;28;20106;-83
2022/03/27 10:35:22;;;;;;;17.75;11.48;;;;;;;14.83;100.00;100787.63;5098435;28;20047;-83
2022/03/27 10:38:05;;;;;;;23.70;12.43;;;;;;;14.70;100.00;100754.66;5104285;28;20035;-84
2022/03/27 10:40:50;;;;;;;;;;;;;;;15.35;100.00;100785.13;5109479;28;20020;-84
2022/03/27 10:43:20;;;;;;;15.50;10.20;;;;;;;15.47;100.00;100778.34;5101639;28;19934;-84
2022/03/27 10:46:13;;;;;;;21.75;10.82;;;;;;;15.61;100.00;100786.47;5100197;28;20023;-84
2022/03/27 10:48:42;;;;;;;19.73;10.73;;;;;;;15.75;100.00;100745.09;5085388;28;20042;-84
2022/03/27 10:51:28;;;;;;;15.85;9.85;;;;;;;15.97;100.00;100760.03;5103950;28;20048;-82
2022/03/27 10:54:09;;;;;;;19.33;11.32;;;;;;;15.81;100.00;100747.81;5102433;28;20036;-82
2022/03/27 10:56:50;;;;;;;19.95;12.15;;;;;;;15.75;100.00;100766.25;5085063;28;20538;-82
2022/03/27 10:59:21;;;;;;;23.15;13.07;;;;;;;15.42;100.00;100767.50;5106193;28;20047;-82
2022/03/27 11:01:55;;;;;;;23.77;13.93;;;;;;;15.14;100.00;100765.50;5080777;28;20055;-84
2022/03/27 11:04:37;;;;;;;23.10;12.50;;;;;;;15.07;100.00;100744.25;5102417;28;20047;-88
2022/03/27 11:07:17;;;;;;;23.75;12.77;;;;;;;15.20;100.00;100764.78;5085512;28;20024;-84
2022/03/27 11:09:47;;;;;;;19.40;11.70;;;;;;;15.22;100.00;100761.94;5093691;28;20082;-83
2022/03/27 11:12:24;;;;;;;20.33;11.88;;;;;;;15.18;100.00;100744.78;5086581;28;20038;-84
2022/03/27 11:14:57;;;;;;;19.00;11.52;;;;;;;15.54;100.00;100766.03;5104083;28;20115;-86
2022/03/27 11:17:38;;;;;;;20.30;11.57;;;;;;;15.17;100.00;100729.94;5107366;28;20261;-83
2022/03/27 11:20:06;;;;;;;21.23;12.82;;;;;;;15.57;100.00;100759.53;5103049;28;20161;-84
2022/03/27 11:22:47;;;;;;;20.10;12.82;;;;;;;15.78;100.00;100750.84;5085651;28;20027;-84
2022/03/27 11:25:38;;;;;;;18.40;12.40;;;;;;;15.68;100.00;100734.41;5103275;28;20024;-85
2022/03/27 11:28:07;;;;;;;22.30;13.60;;;;;;;15.91;100.00;100759.94;5102129;28;20042;-85
2022/03/27 11:30:57;;;;;;;21.98;14.75;;;;;;;16.02;100.00;100751.53;5102264;28;20067;-81
2022/03/27 11:33:24;;;;;;;25.08;13.57;;;;;;;16.02;100.00;100714.44;5101882;28;20521;-84
2022/03/27 11:36:08;;;;;;;23.25;15.63;;;;;;;15.67;100.00;100741.56;5097783;28;20490;-83
2022/03/27 11:38:35;;;;;;;;;;;;;;;15.57;100.00;100739.19;5101419;28;20038;-81